createdAt,value
2018-04-19T00:01:30.701Z,12.43
2018-04-19T00:04:18.743Z,12.10
2018-04-19T00:07:01.370Z,12.47
2018-04-19T00:09:32.275Z,12.52
2018-04-19T00:12:03.178Z,12.55
2018-04-19T00:14:34.557Z,12.50
2018-04-19T00:17:05.679Z,12.21
2018-04-19T00:19:36.551Z,12.04
2018-04-19T00:22:07.371Z,11.92
2018-04-19T00:24:38.195Z,11.98
2018-04-19T00:27:09.114Z,11.90
2018-04-19T00:29:40.064Z,11.80
2018-04-19T00:32:11.033Z,12.08
2018-04-19T00:34:41.929Z,12.11
2018-04-19T00:37:12.660Z,12.04
2018-04-19T00:39:43.237Z,12.08
2018-04-19T00:42:14.002Z,11.84
2018-04-19T00:44:45.124Z,11.25
2018-04-19T00:47:16.076Z,10.85
2018-04-19T00:49:46.706Z,11.32
2018-04-19T00:52:17.571Z,11.78
2018-04-19T00:54:48.316Z,11.74
2018-04-19T00:57:18.992Z,11.68
2018-04-19T00:59:49.733Z,11.59
2018-04-19T01:02:20.761Z,11.74
2018-04-19T01:04:51.568Z,11.75
2018-04-19T01:07:22.874Z,11.70
2018-04-19T01:09:53.593Z,11.70
2018-04-19T01:12:24.395Z,11.52
2018-04-19T01:14:55.540Z,11.53
2018-04-19T01:17:26.194Z,10.94
2018-04-19T01:19:56.716Z,11.28
2018-04-19T01:22:27.660Z,11.29
2018-04-19T01:24:58.387Z,11.12
2018-04-19T01:27:29.004Z,11.31
2018-04-19T01:29:59.680Z,11.24
2018-04-19T01:32:30.482Z,11.40
2018-04-19T01:35:01.355Z,11.12
2018-04-19T01:37:32.444Z,10.85
2018-04-19T01:40:03.176Z,10.71
2018-04-19T01:42:33.904Z,11.10
2018-04-19T01:45:04.801Z,10.78
2018-04-19T01:47:35.440Z,10.57
2018-04-19T01:50:06.267Z,10.50
2018-04-19T01:52:37.044Z,10.76
2018-04-19T01:55:07.799Z,10.86
2018-04-19T01:57:38.612Z,11.02
2018-04-19T02:00:09.505Z,11.03
2018-04-19T02:02:40.194Z,10.46
2018-04-19T02:05:10.977Z,10.56
2018-04-19T02:07:41.818Z,10.75
2018-04-19T02:10:12.794Z,10.39
2018-04-19T02:12:43.648Z,10.27
2018-04-19T02:15:14.560Z,10.58
2018-04-19T02:17:45.297Z,10.44
2018-04-19T02:20:16.097Z,10.65
2018-04-19T02:22:46.816Z,10.62
2018-04-19T02:25:17.891Z,10.49
2018-04-19T02:27:48.570Z,10.22
2018-04-19T02:30:19.468Z,10.14
2018-04-19T02:32:50.143Z,10.22
2018-04-19T02:35:20.904Z,10.59
2018-04-19T02:37:51.655Z,10.49
2018-04-19T02:40:22.416Z,10.45
2018-04-19T02:42:53.032Z,10.53
2018-04-19T02:51:26.320Z,10.30
2018-04-19T02:53:56.985Z,10.27
2018-04-19T02:56:27.952Z,10.44
2018-04-19T02:58:58.779Z,9.73
2018-04-19T03:01:29.512Z,10.05
2018-04-19T03:04:00.220Z,10.18
2018-04-19T03:06:31.162Z,9.95
2018-04-19T03:09:01.817Z,9.52
2018-04-19T03:11:32.564Z,9.76
2018-04-19T03:14:03.301Z,10.08
2018-04-19T03:16:34.678Z,9.88
2018-04-19T03:19:05.454Z,9.78
2018-04-19T03:21:36.177Z,10.03
2018-04-19T03:24:06.944Z,9.97
2018-04-19T03:26:37.906Z,9.83
2018-04-19T03:29:08.718Z,9.52
2018-04-19T03:31:39.658Z,9.97
2018-04-19T03:34:10.552Z,10.02
2018-04-19T03:36:41.268Z,10.00
2018-04-19T03:39:11.872Z,9.63
2018-04-19T03:41:42.628Z,9.36
2018-04-19T03:44:13.457Z,9.62
2018-04-19T03:46:44.344Z,9.09
2018-04-19T03:49:15.032Z,9.10
2018-04-19T03:51:46.175Z,9.52
2018-04-19T03:54:16.995Z,9.33
2018-04-19T03:56:47.806Z,8.66
2018-04-19T03:59:18.609Z,8.99
2018-04-19T04:01:49.288Z,9.44
2018-04-19T04:04:19.985Z,9.54
2018-04-19T04:06:50.722Z,9.52
2018-04-19T04:09:21.455Z,9.09
2018-04-19T04:11:52.063Z,8.27
2018-04-19T04:14:22.670Z,7.89
2018-04-19T04:19:08.678Z,8.79
2018-04-19T04:21:48.374Z,8.61
2018-04-19T04:24:19.221Z,8.27
2018-04-19T04:26:49.912Z,9.17
2018-04-19T04:29:20.585Z,9.08
2018-04-19T04:31:51.312Z,8.83
2018-04-19T04:34:22.084Z,8.71
2018-04-19T04:36:52.788Z,9.05
2018-04-19T04:39:23.512Z,9.50
2018-04-19T04:41:54.105Z,9.47
2018-04-19T04:44:24.894Z,9.66
2018-04-19T04:46:55.562Z,9.53
2018-04-19T04:49:26.284Z,9.54
2018-04-19T04:51:57.049Z,9.51
2018-04-19T04:54:27.843Z,9.67
2018-04-19T04:56:59.202Z,9.54
2018-04-19T04:59:30.460Z,9.73
2018-04-19T05:02:01.641Z,9.07
2018-04-19T05:04:32.804Z,8.69
2018-04-19T05:07:04.441Z,9.04
2018-04-19T05:09:35.233Z,8.77
2018-04-19T05:12:06.255Z,8.85
2018-04-19T05:14:50.040Z,9.59
2018-04-19T05:17:24.540Z,9.58
2018-04-19T05:20:02.329Z,9.79
2018-04-19T05:22:36.520Z,10.09
2018-04-19T05:25:09.399Z,10.24
2018-04-19T05:27:43.299Z,10.09
2018-04-19T05:30:15.256Z,10.05
2018-04-19T05:32:48.198Z,9.10
2018-04-19T05:35:20.960Z,9.59
2018-04-19T05:37:53.226Z,10.10
2018-04-19T05:40:24.578Z,9.99
2018-04-19T05:42:55.783Z,9.75
2018-04-19T05:48:43.952Z,9.86
2018-04-19T05:51:15.022Z,10.40
2018-04-19T05:53:50.965Z,10.99
2018-04-19T05:56:24.559Z,11.24
2018-04-19T05:58:55.409Z,11.34
2018-04-19T06:01:26.669Z,11.21
2018-04-19T06:04:07.443Z,11.50
2018-04-19T06:10:04.814Z,11.57
2018-04-19T06:12:35.817Z,11.55
2018-04-19T06:15:14.401Z,11.59
2018-04-19T06:17:45.817Z,12.06
2018-04-19T06:23:59.621Z,12.00
2018-04-19T06:39:50.229Z,11.93
2018-04-19T06:48:40.596Z,13.86
2018-04-19T06:51:11.221Z,14.13
2018-04-19T06:53:42.261Z,14.39
2018-04-19T06:56:13.152Z,13.97
2018-04-19T06:58:43.788Z,13.92
2018-04-19T07:01:14.540Z,14.40
2018-04-19T07:03:46.183Z,14.40
2018-04-19T07:06:17.168Z,14.81
2018-04-19T07:08:48.053Z,15.31
2018-04-19T07:11:18.794Z,15.36
2018-04-19T07:13:49.812Z,15.70
2018-04-19T07:16:20.584Z,15.62
2018-04-19T07:18:52.229Z,15.73
2018-04-19T07:21:22.995Z,15.43
2018-04-19T07:23:53.700Z,16.04
2018-04-19T07:26:24.654Z,15.95
2018-04-19T07:28:55.571Z,16.33
2018-04-19T07:31:26.352Z,16.28
2018-04-19T07:36:55.081Z,16.99
2018-04-19T07:39:25.764Z,16.89
2018-04-19T07:41:56.539Z,16.53
2018-04-19T07:44:27.129Z,16.88
2018-04-19T07:46:57.935Z,17.82
2018-04-19T07:49:28.649Z,18.59
2018-04-19T07:51:59.519Z,18.54
2018-04-19T07:54:30.183Z,18.93
2018-04-19T07:57:01.367Z,19.47
2018-04-19T07:59:32.553Z,19.13
2018-04-19T08:02:03.869Z,19.00
2018-04-19T08:04:34.668Z,18.93
2018-04-19T08:07:05.228Z,18.91
2018-04-19T08:09:36.075Z,19.43
2018-04-19T08:12:07.127Z,19.52
2018-04-19T08:14:38.096Z,19.27
2018-04-19T08:17:09.553Z,19.49
2018-04-19T08:19:41.027Z,19.45
2018-04-19T08:22:12.217Z,19.63
2018-04-19T08:24:43.153Z,19.57
2018-04-19T08:27:13.975Z,19.77
2018-04-19T08:29:44.671Z,19.52
2018-04-19T08:32:15.872Z,19.75
2018-04-19T08:34:47.075Z,19.67
2018-04-19T08:37:18.127Z,19.74
2018-04-19T08:39:49.205Z,19.54
2018-04-19T08:42:20.307Z,19.88
2018-04-19T08:44:51.209Z,20.11
2018-04-19T08:47:22.159Z,20.01
2018-04-19T08:49:52.963Z,19.89
2018-04-19T08:52:24.531Z,19.76
2018-04-19T08:55:05.423Z,19.94
2018-04-19T09:00:48.308Z,20.99
2018-04-19T09:03:28.979Z,20.77
2018-04-19T09:06:06.564Z,20.87
2018-04-19T09:08:39.459Z,20.73
2018-04-19T09:11:15.557Z,20.96
2018-04-19T09:13:54.648Z,21.37
2018-04-19T09:16:25.968Z,21.36
2018-04-19T09:18:56.944Z,21.36
2018-04-19T09:21:28.118Z,21.32
2018-04-19T09:23:59.084Z,21.27
2018-04-19T09:26:35.827Z,20.65
2018-04-19T09:29:07.100Z,21.27
2018-04-19T09:31:38.305Z,21.25
2018-04-19T09:34:09.395Z,21.63
2018-04-19T09:36:40.365Z,21.40
2018-04-19T09:39:11.147Z,21.48
2018-04-19T09:41:42.276Z,21.79
2018-04-19T09:44:13.238Z,21.97
2018-04-19T09:46:44.080Z,21.64
2018-04-19T09:49:14.890Z,22.04
2018-04-19T09:51:46.628Z,22.00
2018-04-19T09:54:19.422Z,22.36
2018-04-19T09:56:51.774Z,22.51
2018-04-19T09:59:22.837Z,22.54
2018-04-19T10:02:02.723Z,23.02
2018-04-19T10:07:39.500Z,23.34
2018-04-19T10:10:10.478Z,23.33
2018-04-19T10:12:41.997Z,23.43
2018-04-19T10:15:13.892Z,23.28
2018-04-19T10:17:45.617Z,22.37
2018-04-19T10:20:16.816Z,22.50
2018-04-19T10:22:50.391Z,21.83
2018-04-19T10:25:22.074Z,22.64
2018-04-19T10:27:55.128Z,23.41
2018-04-19T10:30:26.033Z,23.37
2018-04-19T10:32:57.046Z,22.84
2018-04-19T10:35:27.692Z,23.46
2018-04-19T10:37:58.927Z,23.02
2018-04-19T10:40:29.467Z,23.32
2018-04-19T10:43:00.352Z,23.20
2018-04-19T10:45:31.984Z,23.52
2018-04-19T10:48:02.734Z,22.98
2018-04-19T10:50:33.818Z,23.22
2018-04-19T10:53:05.957Z,23.26
2018-04-19T10:55:36.760Z,23.27
2018-04-19T10:58:09.034Z,23.11
2018-04-19T11:00:40.418Z,23.66
2018-04-19T11:03:11.444Z,23.95
2018-04-19T11:05:43.330Z,23.79
2018-04-19T11:08:14.387Z,24.15
2018-04-19T11:10:46.278Z,24.26
2018-04-19T11:23:09.274Z,24.53
2018-04-19T11:25:40.542Z,24.85
2018-04-19T11:28:11.678Z,24.53
2018-04-19T11:30:42.958Z,24.09
2018-04-19T11:33:13.812Z,24.18
2018-04-19T11:35:44.838Z,24.47
2018-04-19T11:38:15.864Z,24.65
2018-04-19T11:40:46.713Z,24.19
2018-04-19T11:43:17.965Z,24.49
2018-04-19T11:45:48.868Z,24.50
2018-04-19T11:48:21.323Z,24.64
2018-04-19T11:50:53.328Z,24.45
2018-04-19T11:53:26.377Z,24.58
2018-04-19T11:55:59.768Z,24.63
2018-04-19T11:58:30.830Z,24.80
2018-04-19T12:01:02.304Z,24.84
2018-04-19T12:03:33.935Z,24.87
2018-04-19T12:06:05.439Z,24.57
2018-04-19T12:08:36.575Z,24.91
2018-04-19T12:11:07.435Z,24.62
2018-04-19T12:13:39.853Z,24.63
2018-04-19T12:16:11.183Z,24.59
2018-04-19T12:18:42.166Z,24.76
2018-04-19T12:21:13.287Z,24.35
2018-04-19T12:23:44.454Z,24.17
2018-04-19T12:26:15.393Z,24.55
2018-04-19T12:28:46.109Z,24.78
2018-04-19T12:31:16.838Z,24.69
2018-04-19T12:33:47.810Z,24.77
2018-04-19T12:36:18.424Z,24.67
2018-04-19T12:38:49.714Z,24.76
2018-04-19T12:41:20.866Z,24.78
2018-04-19T12:46:53.693Z,24.58
2018-04-19T12:49:32.841Z,24.67
2018-04-19T12:52:19.905Z,24.88
2018-04-19T12:54:59.252Z,25.11
2018-04-19T12:57:30.643Z,25.12
2018-04-19T13:00:01.641Z,25.10
2018-04-19T13:05:12.853Z,25.07
2018-04-19T13:07:43.789Z,25.05
2018-04-19T13:10:14.799Z,25.32
2018-04-19T13:12:47.865Z,25.33
2018-04-19T13:15:33.127Z,25.54
2018-04-19T13:18:04.719Z,25.45
2018-04-19T13:20:43.486Z,25.83
2018-04-19T13:32:26.136Z,25.94
2018-04-19T13:37:45.894Z,26.58
2018-04-19T13:40:16.889Z,26.74
2018-04-19T13:42:52.705Z,26.92
2018-04-19T13:45:24.372Z,26.82
2018-04-19T13:48:06.203Z,26.84
2018-04-19T13:56:22.990Z,26.75
2018-04-19T13:58:54.189Z,26.40
2018-04-19T14:01:32.576Z,26.25
2018-04-19T14:13:46.128Z,26.47
2018-04-19T14:16:17.632Z,26.31
2018-04-19T14:18:48.568Z,25.91
2018-04-19T14:23:59.224Z,25.74
2018-04-19T14:26:45.403Z,26.50
2018-04-19T14:29:17.293Z,25.35
2018-04-19T14:31:49.241Z,26.05
2018-04-19T14:34:21.348Z,26.35
2018-04-19T14:36:52.937Z,26.24
2018-04-19T14:39:38.689Z,25.66
2018-04-19T15:13:42.466Z,24.94
2018-04-19T15:16:13.741Z,24.98
2018-04-19T15:18:44.940Z,24.92
2018-04-19T15:21:15.772Z,25.33
2018-04-19T15:23:46.888Z,24.57
2018-04-19T15:26:17.740Z,24.88
2018-04-19T15:28:48.691Z,24.73
2018-04-19T15:31:19.356Z,24.53
2018-04-19T15:33:50.220Z,24.20
2018-04-19T15:36:21.085Z,24.83
2018-04-19T15:38:52.293Z,24.71
2018-04-19T15:41:26.249Z,24.42
2018-04-19T15:43:58.922Z,24.31
2018-04-19T15:46:29.617Z,24.25
2018-04-19T15:49:03.102Z,24.19
2018-04-19T15:51:35.146Z,24.08
2018-04-19T15:54:06.207Z,24.29
2018-04-19T15:56:37.113Z,24.12
2018-04-19T15:59:10.637Z,24.20
2018-04-19T16:01:42.342Z,23.89
2018-04-19T16:04:13.946Z,23.93
2018-04-19T16:06:44.651Z,23.96
2018-04-19T16:09:15.383Z,24.06
2018-04-19T16:11:52.852Z,23.82
2018-04-19T16:14:17.284Z,23.73
2018-04-19T16:16:48.429Z,23.70
2018-04-19T16:19:19.306Z,23.75
2018-04-19T16:21:50.428Z,23.97
2018-04-19T16:24:21.196Z,23.87
2018-04-19T16:26:51.847Z,23.74
2018-04-19T16:29:22.603Z,23.52
2018-04-19T16:31:53.560Z,23.60
2018-04-19T16:34:24.292Z,23.30
2018-04-19T16:36:55.129Z,23.37
2018-04-19T16:39:31.190Z,23.35
2018-04-19T16:42:02.232Z,23.25
2018-04-19T16:44:33.343Z,23.23
2018-04-19T17:06:44.547Z,22.79
2018-04-19T17:15:54.809Z,22.55
2018-04-19T17:18:38.570Z,22.22
2018-04-19T17:24:25.965Z,22.19
2018-04-19T17:26:57.988Z,22.00
2018-04-19T17:29:29.928Z,21.87
2018-04-19T17:35:41.440Z,21.79
2018-04-19T17:44:36.623Z,21.79
2018-04-19T18:00:44.805Z,21.11
2018-04-19T18:03:34.404Z,21.09
2018-04-19T18:06:05.275Z,21.22
2018-04-19T18:08:36.329Z,21.11
2018-04-19T18:11:07.199Z,21.20
2018-04-19T18:13:38.033Z,21.05
2018-04-19T18:16:08.826Z,21.15
2018-04-19T18:21:59.441Z,20.81
2018-04-19T18:24:31.192Z,21.10
2018-04-19T18:30:22.669Z,20.89
2018-04-19T18:32:54.656Z,21.33
2018-04-19T18:38:57.268Z,21.23
2018-04-19T18:41:33.328Z,21.19
2018-04-19T18:44:24.561Z,20.94
2018-04-19T18:47:14.556Z,21.23
2018-04-19T18:53:36.580Z,21.12
2018-04-19T18:56:47.360Z,20.95
2018-04-19T18:59:51.999Z,20.59
2018-04-19T19:06:04.343Z,20.37
2018-04-19T19:08:44.803Z,19.66
2018-04-19T19:24:13.197Z,18.38
2018-04-19T19:29:52.189Z,18.87
2018-04-19T19:32:46.694Z,18.77
2018-04-19T19:39:01.279Z,18.16
2018-04-19T19:41:50.186Z,19.05
2018-04-19T19:44:37.510Z,18.17
2018-04-19T19:53:12.122Z,17.79
2018-04-19T19:55:46.309Z,18.24
2018-04-19T19:58:18.746Z,17.69
2018-04-19T20:03:30.579Z,16.67
2018-04-19T20:06:03.113Z,16.56
2018-04-19T20:08:35.267Z,16.09
2018-04-19T20:11:06.515Z,16.26
2018-04-19T20:13:38.203Z,16.76
2018-04-19T20:16:09.809Z,16.65
2018-04-19T20:18:41.844Z,16.85
2018-04-19T20:21:20.667Z,16.12
2018-04-19T20:23:52.281Z,16.03
2018-04-19T20:26:23.437Z,16.44
2018-04-19T20:28:55.028Z,16.04
2018-04-19T20:31:26.830Z,16.37
2018-04-19T20:33:58.352Z,16.00
2018-04-19T20:36:29.544Z,15.83
2018-04-19T20:39:01.913Z,15.60
2018-04-19T20:41:33.270Z,15.44
2018-04-19T20:55:02.100Z,15.46
2018-04-19T20:57:45.493Z,15.59
2018-04-19T21:03:31.239Z,15.44
2018-04-19T21:06:30.715Z,15.56
2018-04-19T21:09:41.082Z,16.34
2018-04-19T21:13:10.708Z,15.94
2018-04-19T21:16:39.729Z,15.43
2018-04-19T21:19:31.942Z,14.83
2018-04-19T21:22:22.839Z,14.84
2018-04-19T21:25:21.881Z,14.61
2018-04-19T21:28:19.695Z,14.49
2018-04-19T21:31:00.932Z,14.46
2018-04-19T21:33:49.521Z,14.31
2018-04-19T21:36:38.214Z,14.24
2018-04-19T21:39:19.512Z,14.21
2018-04-19T21:42:31.905Z,14.08
2018-04-19T21:46:00.687Z,14.33
2018-04-19T22:01:45.142Z,13.91
2018-04-19T22:05:34.920Z,14.39
2018-04-19T22:16:26.015Z,14.11
2018-04-19T22:19:13.327Z,13.86
2018-04-19T22:21:46.298Z,13.94
2018-04-19T22:24:18.097Z,15.12
2018-04-19T22:26:50.547Z,15.45
2018-04-19T22:29:27.379Z,15.55
2018-04-19T22:31:59.942Z,15.63
2018-04-19T22:34:36.543Z,15.47
2018-04-19T22:37:08.864Z,15.23
2018-04-19T22:42:24.433Z,15.42
2018-04-19T22:44:57.097Z,15.06
2018-04-19T22:47:33.586Z,14.66
2018-04-19T22:50:05.280Z,13.38
2018-04-19T22:52:37.575Z,14.05
2018-04-19T22:55:09.567Z,14.78
2018-04-19T22:57:46.688Z,15.02
2018-04-19T23:00:19.638Z,15.02
2018-04-19T23:02:51.638Z,13.75
2018-04-19T23:05:25.664Z,14.44
2018-04-19T23:07:57.730Z,14.54
2018-04-19T23:10:30.288Z,14.50
2018-04-19T23:13:03.521Z,14.79
2018-04-19T23:15:36.497Z,14.51
2018-04-19T23:18:08.577Z,12.82
2018-04-19T23:20:40.265Z,12.58
2018-04-19T23:23:11.539Z,12.76
2018-04-19T23:25:43.284Z,12.96
2018-04-19T23:28:14.405Z,12.46
2018-04-19T23:30:45.417Z,13.20
2018-04-19T23:33:16.524Z,12.73
2018-04-19T23:35:47.440Z,12.41
2018-04-19T23:38:18.642Z,12.45
2018-04-19T23:40:50.283Z,12.28
2018-04-19T23:43:22.856Z,12.32
2018-04-19T23:45:56.142Z,12.91
2018-04-19T23:48:30.540Z,13.75
2018-04-19T23:51:04.075Z,13.63
2018-04-19T23:53:35.954Z,13.82
2018-04-19T23:56:08.685Z,13.70
2018-04-19T23:58:43.660Z,13.16
